This is the latest recevied weather packets stored in our database for station/object HS6TUX-4. If no packets are shown the sender has not sent any weather packets the latest 10 day(s).
| Time | Temp. | Humidity | Pressure | Rain* | Wind** | Luminosity | Snow |
|---|---|---|---|---|---|---|---|
| 1777470223 | 32.22° C | 99% | 729 hPa | - | - | 0 W/m² | - |
| 1777469295 | 32.78° C | 99% | 730 hPa | - | - | 0 W/m² | - |
| 1777468367 | 32.78° C | 99% | 730 hPa | - | - | 0 W/m² | - |
| 1777467439 | 33.33° C | 88% | 731 hPa | - | - | 0 W/m² | - |
| 1777466511 | 33.89° C | 86% | 731 hPa | - | - | 0 W/m² | - |
| 1777465582 | 34.44° C | 75% | 732 hPa | - | - | 0 W/m² | - |
| 1777465072 | 34.44° C | 74% | 732 hPa | - | - | 0 W/m² | - |
| 1777464143 | 35° C | 75% | 733 hPa | - | - | 0 W/m² | - |
| 1777463215 | 35.56° C | 71% | 733 hPa | - | - | 0 W/m² | - |
| 1777462286 | 36.11° C | 72% | 734 hPa | - | - | 1 W/m² | - |
| 1777461358 | 36.67° C | 72% | 735 hPa | - | - | 3 W/m² | - |
| 1777460430 | 37.78° C | 71% | 736 hPa | - | - | 7 W/m² | - |
| 1777459502 | 37.22° C | 68% | 736 hPa | - | - | 7 W/m² | - |
| 1777458574 | 37.78° C | 69% | 736 hPa | - | - | 9 W/m² | - |
| 1777457646 | 38.33° C | 68% | 736 hPa | - | - | 12 W/m² | - |
| 1777456717 | 38.33° C | 67% | 736 hPa | - | - | 12 W/m² | - |
| 1777455789 | 38.33° C | 68% | 737 hPa | - | - | 14 W/m² | - |
| 1777454861 | 38.33° C | 67% | 737 hPa | - | - | 15 W/m² | - |
| 1777453933 | 40° C | 65% | 738 hPa | - | - | 22 W/m² | - |
| 1777453005 | 41.11° C | 63% | 740 hPa | - | - | 29 W/m² | - |
| 1777452076 | 41.67° C | 61% | 740 hPa | - | - | 37 W/m² | - |
| 1777451148 | 40.56° C | 62% | 739 hPa | - | - | 24 W/m² | - |
| 1777450220 | 40.56° C | 63% | 739 hPa | - | - | 31 W/m² | - |
| 1777449292 | 42.22° C | 60% | 741 hPa | - | - | 33 W/m² | - |
| 1777448363 | 42.22° C | 59% | 741 hPa | - | - | 35 W/m² | - |
* Rain since midnight (hover to see other rain measurements)
** Current wind speed in m/s (hover to see current wind gust speed)